Time;durP1;ratioP1;P1;durP2;ratioP2;P2;SDS_P1;SDS_P2;PMS_P1;PMS_P2;Temp;Humidity;BMP_temperature;BMP_pressure;BME280_temperature;BME280_humidity;BME280_pressure;Samples;Min_cycle;Max_cycle;Signal;HPM_P1;HPM_P2
2022/04/27 00:02:01;;;;;;;5.23;3.47;;;;;;;5.56;76.82;95673.70;1787282;80;20972;-67
2022/04/27 00:04:28;;;;;;;4.93;3.60;;;;;;;5.54;76.72;95681.98;1786944;80;21572;-67
2022/04/27 00:06:55;;;;;;;5.57;3.97;;;;;;;5.48;78.03;95680.23;1787134;80;21469;-67
2022/04/27 00:09:22;;;;;;;3.73;3.20;;;;;;;5.42;77.82;95673.25;1787272;80;21452;-67
2022/04/27 00:11:48;;;;;;;6.50;4.00;;;;;;;5.36;79.27;95680.20;1787125;80;20967;-67
2022/04/27 00:14:16;;;;;;;6.07;3.33;;;;;;;5.37;79.17;95677.59;1786848;80;21015;-67
2022/04/27 00:16:44;;;;;;;4.33;3.33;;;;;;;5.37;78.19;95679.34;1787055;80;21022;-67
2022/04/27 00:19:11;;;;;;;5.23;3.47;;;;;;;5.43;77.87;95680.66;1786947;80;20979;-67
2022/04/27 00:21:37;;;;;;;4.27;3.63;;;;;;;5.43;77.71;95679.34;1787380;80;20987;-67
2022/04/27 00:24:05;;;;;;;4.93;3.60;;;;;;;5.42;77.82;95671.94;1787032;80;21011;-67
2022/04/27 00:26:32;;;;;;;3.40;2.80;;;;;;;5.49;77.49;95662.78;1787056;80;21491;-67
2022/04/27 00:28:58;;;;;;;4.10;3.27;;;;;;;5.50;77.54;95661.48;1786812;80;21019;-67
2022/04/27 00:31:25;;;;;;;5.87;2.90;;;;;;;5.46;78.62;95657.55;1787191;80;21524;-67
2022/04/27 00:33:51;;;;;;;4.47;3.20;;;;;;;5.45;78.67;95661.91;1786742;80;21019;-67
2022/04/27 00:36:18;;;;;;;5.03;3.63;;;;;;;5.49;79.09;95657.55;1787018;80;20959;-67
2022/04/27 00:38:44;;;;;;;4.90;3.03;;;;;;;5.52;78.92;95658.45;1787146;80;20979;-67
2022/04/27 00:41:11;;;;;;;3.97;3.27;;;;;;;5.61;78.58;95649.72;1787151;80;20967;-67
2022/04/27 00:43:41;;;;;;;6.37;3.57;;;;;;;5.71;78.41;95651.48;1787070;80;21552;-67
2022/04/27 00:46:11;;;;;;;4.13;3.20;;;;;;;5.77;78.15;95646.27;1786926;80;21015;-67
2022/04/27 00:48:39;;;;;;;4.40;3.33;;;;;;;5.77;77.75;95650.19;1787233;80;21007;-67
2022/04/27 00:51:07;;;;;;;5.33;3.40;;;;;;;5.70;77.70;95657.59;1787096;80;21523;-67
2022/04/27 00:53:34;;;;;;;3.90;3.10;;;;;;;5.72;77.69;95653.66;1786923;80;21030;-67
2022/04/27 00:56:02;;;;;;;4.43;3.43;;;;;;;5.74;77.84;95648.86;1787125;80;21483;-67
2022/04/27 00:58:29;;;;;;;4.40;2.93;;;;;;;5.78;77.66;95648.44;1787060;80;21495;-67
2022/04/27 01:00:56;;;;;;;3.97;3.17;;;;;;;5.77;77.47;95650.19;1787054;80;21038;-67
2022/04/27 01:03:23;;;;;;;3.47;2.50;;;;;;;5.77;77.41;95642.75;1787111;80;20995;-67
2022/04/27 01:05:51;;;;;;;6.00;3.07;;;;;;;5.71;77.23;95642.76;1786989;80;21026;-67
2022/04/27 01:08:23;;;;;;;4.20;3.20;;;;;;;5.63;77.51;95641.00;1786762;80;21022;-67
2022/04/27 01:10:50;;;;;;;3.97;3.10;;;;;;;5.62;77.75;95644.95;1754325;80;21006;-67
2022/04/27 01:13:17;;;;;;;4.90;2.97;;;;;;;5.60;77.57;95639.70;1787081;80;21094;-67
2022/04/27 01:15:45;;;;;;;4.13;3.73;;;;;;;5.57;77.50;95643.63;1786439;80;21113;-67
2022/04/27 01:18:12;;;;;;;6.27;3.33;;;;;;;5.49;78.20;95645.77;1787360;80;20955;-67
2022/04/27 01:20:45;;;;;;;4.07;3.27;;;;;;;5.41;78.84;95651.86;1753847;80;21051;-67
2022/04/27 01:23:14;;;;;;;4.65;3.00;;;;;;;5.33;79.69;95649.66;1787324;80;21461;-67
2022/04/27 01:25:54;;;;;;;5.57;3.83;;;;;;;5.26;79.04;95652.27;1786862;80;20995;-67
2022/04/27 01:28:25;;;;;;;4.47;3.40;;;;;;;5.26;79.06;95649.20;1786947;80;21034;-67
2022/04/27 01:30:58;;;;;;;5.33;3.23;;;;;;;5.24;80.64;95646.14;1787051;80;21472;-67
2022/04/27 01:33:27;;;;;;;20.12;8.83;;;;;;;5.15;80.41;95653.11;1787237;80;21015;-67
2022/04/27 01:35:54;;;;;;;5.80;3.93;;;;;;;5.13;79.46;95649.61;1787027;80;20979;-67
2022/04/27 01:38:21;;;;;;;4.60;3.40;;;;;;;5.14;80.10;95652.67;1786690;80;21058;-67
2022/04/27 01:40:54;;;;;;;5.87;3.77;;;;;;;5.15;79.53;95654.41;1787382;80;20963;-67
2022/04/27 01:43:24;;;;;;;4.05;3.15;;;;;;;5.23;79.29;95641.80;1787223;80;21003;-67
2022/04/27 01:45:52;;;;;;;4.20;2.73;;;;;;;5.26;80.26;95647.03;1794721;80;21022;-67
2022/04/27 01:48:20;;;;;;;4.00;3.13;;;;;;;5.22;80.06;95647.47;1794725;80;20979;-67
2022/04/27 01:50:47;;;;;;;3.30;2.67;;;;;;;5.24;79.96;95651.38;1795486;80;21015;-67
2022/04/27 01:55:59;;;;;;;7.00;3.07;;;;;;;5.17;80.03;95642.66;1795559;80;21054;-67
2022/04/27 01:58:27;;;;;;;11.00;3.93;;;;;;;5.26;79.91;95644.41;1795376;80;20998;-67
2022/04/27 02:00:55;;;;;;;4.77;2.67;;;;;;;5.28;79.78;95640.94;1764424;80;21460;-67
2022/04/27 02:03:22;;;;;;;3.87;2.97;;;;;;;5.32;79.93;95638.77;1795342;80;20989;-67
2022/04/27 02:05:50;;;;;;;6.67;2.50;;;;;;;5.33;79.73;95638.33;1795360;80;21070;-67
2022/04/27 02:08:18;;;;;;;3.67;2.40;;;;;;;5.31;80.44;95632.22;1764499;80;21046;-67
2022/04/27 02:10:45;;;;;;;3.13;2.60;;;;;;;5.31;79.89;95625.67;1795392;80;20979;-67
2022/04/27 02:13:12;;;;;;;5.03;2.70;;;;;;;5.31;80.19;95625.23;1795449;80;21010;-67
2022/04/27 02:15:39;;;;;;;2.80;2.40;;;;;;;5.26;80.85;95627.41;1795366;80;21030;-67
2022/04/27 02:18:08;;;;;;;2.70;2.27;;;;;;;5.23;80.01;95626.09;1793590;80;21054;-68
2022/04/27 02:20:35;;;;;;;4.70;2.50;;;;;;;5.31;80.31;95623.06;1795387;80;21045;-67
2022/04/27 02:23:02;;;;;;;4.90;2.63;;;;;;;5.39;80.73;95620.02;1795332;80;21085;-67
2022/04/27 02:25:29;;;;;;;3.33;2.43;;;;;;;5.42;80.77;95626.15;1795251;80;21069;-67
2022/04/27 02:27:56;;;;;;;4.07;2.40;;;;;;;5.35;79.86;95618.28;1795449;80;20959;-67
2022/04/27 02:30:23;;;;;;;3.47;2.30;;;;;;;5.34;80.69;95617.42;1795653;80;21011;-67
2022/04/27 02:32:50;;;;;;;2.97;2.43;;;;;;;5.32;80.74;95621.77;1795074;80;21627;-67
2022/04/27 02:35:18;;;;;;;3.70;2.43;;;;;;;5.24;80.89;95623.91;1795046;80;21020;-67
2022/04/27 02:37:45;;;;;;;3.40;2.43;;;;;;;5.26;81.34;95619.56;1795358;80;21046;-67
2022/04/27 02:40:13;;;;;;;4.53;2.90;;;;;;;5.28;80.73;95619.14;1795301;80;21073;-67
2022/04/27 02:42:40;;;;;;;3.77;2.50;;;;;;;5.35;80.75;95623.52;1795401;80;21023;-67
2022/04/27 02:45:08;;;;;;;3.07;2.13;;;;;;;5.33;79.87;95620.02;1795089;80;21140;-67
2022/04/27 02:47:35;;;;;;;5.90;2.67;;;;;;;5.24;79.96;95621.30;1795267;80;21016;-67
2022/04/27 02:52:53;;;;;;;7.07;4.30;;;;;;;5.15;80.46;95625.64;1786566;80;21007;-67
2022/04/27 02:55:22;;;;;;;27.80;10.37;;;;;;;5.07;80.71;95621.27;1794634;80;21496;-67
2022/04/27 02:57:50;;;;;;;14.30;5.17;;;;;;;4.99;80.33;95623.86;1795339;80;21030;-67
2022/04/27 03:00:18;;;;;;;7.10;3.63;;;;;;;5.03;80.11;95624.73;1795589;80;20994;-67
2022/04/27 03:02:45;;;;;;;3.00;2.50;;;;;;;5.01;80.48;95626.46;1795360;80;21477;-67
2022/04/27 03:05:12;;;;;;;6.10;2.57;;;;;;;5.02;79.98;95620.38;1795501;80;20990;-67
2022/04/27 03:07:39;;;;;;;3.73;2.77;;;;;;;5.01;80.22;95620.79;1795647;80;20991;-68
2022/04/27 03:10:07;;;;;;;3.03;2.30;;;;;;;4.97;80.55;95615.13;1795620;80;21038;-67
2022/04/27 03:12:36;;;;;;;8.40;4.37;;;;;;;4.87;80.04;95626.42;1795627;80;21013;-68
2022/04/27 03:15:05;;;;;;;24.83;11.63;;;;;;;4.71;80.96;95630.28;1795263;80;21555;-67
2022/04/27 03:17:32;;;;;;;9.53;5.67;;;;;;;4.61;80.78;95635.44;1795479;80;21077;-67
2022/04/27 03:19:59;;;;;;;4.33;2.93;;;;;;;4.59;81.39;95635.45;1795591;80;21049;-67
2022/04/27 03:22:26;;;;;;;3.57;2.60;;;;;;;4.62;81.77;95635.90;1795659;80;21006;-67
2022/04/27 03:24:53;;;;;;;3.27;1.90;;;;;;;4.62;81.85;95631.98;1795626;80;20943;-67
2022/04/27 03:27:21;;;;;;;3.00;2.10;;;;;;;4.57;81.69;95636.31;1794832;80;20979;-67
2022/04/27 03:29:48;;;;;;;2.90;2.17;;;;;;;4.46;81.35;95640.14;1795525;80;21472;-67
2022/04/27 03:32:15;;;;;;;2.87;1.87;;;;;;;4.40;81.23;95637.07;1795761;80;21042;-67
2022/04/27 03:34:44;;;;;;;2.03;1.53;;;;;;;4.41;81.64;95644.47;1794671;80;21516;-67
2022/04/27 03:37:11;;;;;;;2.50;2.17;;;;;;;4.41;82.39;95649.29;1795650;80;21010;-67
2022/04/27 03:39:38;;;;;;;5.27;2.43;;;;;;;4.51;82.70;95646.27;1795623;80;21003;-67
2022/04/27 03:42:07;;;;;;;5.30;2.70;;;;;;;4.59;82.82;95648.95;1764831;80;21042;-67
2022/04/27 03:44:34;;;;;;;2.87;2.10;;;;;;;4.73;82.73;95642.03;1795587;80;21105;-67
2022/04/27 03:47:02;;;;;;;2.47;2.10;;;;;;;4.85;82.17;95642.09;1795686;80;20975;-67
2022/04/27 03:49:30;;;;;;;5.40;1.83;;;;;;;4.88;81.70;95643.84;1795403;80;21508;-67
2022/04/27 03:51:58;;;;;;;2.10;1.90;;;;;;;4.91;81.53;95644.75;1795534;80;21015;-67
2022/04/27 03:54:25;;;;;;;8.97;4.27;;;;;;;4.88;81.66;95646.02;1795641;80;20987;-67
2022/04/27 03:56:52;;;;;;;2.40;2.07;;;;;;;4.92;81.32;95643.88;1795503;80;21472;-67
2022/04/27 03:59:18;;;;;;;2.77;2.07;;;;;;;4.98;81.62;95641.70;1795786;80;21006;-67
2022/04/27 04:01:45;;;;;;;2.27;1.90;;;;;;;4.97;81.26;95644.77;1795259;80;21508;-67
2022/04/27 04:04:12;;;;;;;3.20;2.00;;;;;;;5.03;81.75;95649.13;1795579;80;20990;-67
2022/04/27 04:06:39;;;;;;;4.57;3.23;;;;;;;5.13;81.30;95650.91;1795576;80;20994;-67
2022/04/27 04:09:07;;;;;;;11.03;6.23;;;;;;;5.15;80.80;95654.41;1795027;80;21006;-67
2022/04/27 04:11:34;;;;;;;10.07;5.83;;;;;;;5.16;82.01;95649.61;1795654;80;21049;-67
2022/04/27 04:14:05;;;;;;;12.13;6.93;;;;;;;5.33;82.44;95654.90;1790461;80;20983;-67
2022/04/27 04:16:33;;;;;;;9.17;5.77;;;;;;;5.53;82.43;95652.33;1789778;80;20999;-68
2022/04/27 04:19:10;;;;;;;11.47;5.90;;;;;;;5.59;81.87;95654.97;1794165;80;21046;-67
2022/04/27 04:21:56;;;;;;;9.67;5.87;;;;;;;5.76;81.79;95660.66;1795758;80;21038;-67
2022/04/27 04:24:27;;;;;;;10.57;6.00;;;;;;;5.87;81.65;95664.14;1770223;80;20991;-68
2022/04/27 04:29:39;;;;;;;8.80;5.80;;;;;;;6.09;81.81;95663.75;1795455;80;21015;-68
2022/04/27 04:32:07;;;;;;;9.00;7.17;;;;;;;6.31;81.72;95659.82;1795408;80;21011;-68
2022/04/27 04:34:38;;;;;;;10.53;7.12;;;;;;;6.47;81.08;95660.22;1794160;80;21040;-67
2022/04/27 04:37:07;;;;;;;10.10;6.53;;;;;;;6.58;80.70;95663.71;1795577;80;21022;-67
2022/04/27 04:39:34;;;;;;;8.17;5.97;;;;;;;6.65;80.25;95663.23;1795270;80;20971;-68
2022/04/27 04:42:01;;;;;;;8.60;6.30;;;;;;;6.71;80.35;95664.55;1795593;80;20959;-67
2022/04/27 04:44:28;;;;;;;8.67;6.20;;;;;;;6.84;80.15;95661.45;1795072;80;20998;-68
2022/04/27 04:47:11;;;;;;;6.72;4.45;;;;;;;6.93;79.93;95667.55;1786293;80;21481;-68
2022/04/27 04:49:56;;;;;;;9.20;5.90;;;;;;;7.03;79.25;95670.13;1786950;80;21489;-68
2022/04/27 04:52:42;;;;;;;10.23;6.23;;;;;;;7.17;79.85;95670.95;1786947;80;21110;-68
2022/04/27 04:55:13;;;;;;;7.93;5.30;;;;;;;7.34;79.56;95672.20;1781064;80;21023;-67
2022/04/27 04:57:54;;;;;;;8.70;5.53;;;;;;;7.44;79.14;95668.64;1721139;80;21011;-67
2022/04/27 05:00:34;;;;;;;8.87;6.60;;;;;;;7.53;78.80;95669.02;1782634;80;21516;-67
2022/04/27 05:03:21;;;;;;;9.43;6.33;;;;;;;7.62;78.45;95667.66;1785513;80;21027;-67
2022/04/27 05:06:06;;;;;;;11.93;6.90;;;;;;;7.69;78.06;95671.14;1786959;80;21031;-68
2022/04/27 05:08:51;;;;;;;11.07;7.13;;;;;;;7.74;77.90;95679.41;1787012;80;21034;-67
2022/04/27 05:11:21;;;;;;;9.87;6.40;;;;;;;7.76;78.05;95680.28;1782916;80;21030;-67
2022/04/27 05:14:06;;;;;;;10.10;6.50;;;;;;;7.80;78.36;95677.17;1787001;80;21030;-68
2022/04/27 05:16:37;;;;;;;8.47;6.00;;;;;;;7.81;78.58;95678.91;1781174;80;20979;-68
2022/04/27 05:19:08;;;;;;;9.60;7.33;;;;;;;7.89;78.67;95687.64;1761944;80;21505;-67
2022/04/27 05:21:42;;;;;;;9.87;7.80;;;;;;;7.96;78.18;95674.00;1769795;80;21027;-67
2022/04/27 05:24:13;;;;;;;10.50;8.57;;;;;;;7.99;77.75;95680.56;1783656;80;21006;-67
2022/04/27 05:26:58;;;;;;;6.63;5.17;;;;;;;8.10;77.76;95683.11;1786850;80;21501;-68
2022/04/27 05:32:45;;;;;;;6.00;4.10;;;;;;;8.56;77.42;95677.03;1784976;80;20979;-67
2022/04/27 05:35:30;;;;;;;5.97;4.87;;;;;;;8.79;77.03;95682.52;1786792;80;21529;-67
2022/04/27 05:37:59;;;;;;;9.30;5.47;;;;;;;9.00;77.01;95674.41;1784418;80;21034;-67
2022/04/27 05:40:30;;;;;;;7.17;5.40;;;;;;;9.14;76.30;95683.90;1728966;80;21086;-67
2022/04/27 05:43:06;;;;;;;8.77;6.73;;;;;;;9.30;76.18;95679.76;1786004;80;21528;-68
2022/04/27 05:45:55;;;;;;;8.50;6.00;;;;;;;9.46;75.93;95676.48;1786960;80;21138;-67
2022/04/27 05:48:22;;;;;;;7.17;6.00;;;;;;;9.64;75.62;95675.36;1774773;80;21027;-68
2022/04/27 05:51:01;;;;;;;7.10;5.23;;;;;;;9.78;74.67;95683.09;1794375;80;21121;-67
2022/04/27 05:53:42;;;;;;;4.87;4.05;;;;;;;9.92;74.74;95682.42;1795553;80;21525;-67
2022/04/27 05:56:27;;;;;;;6.90;4.60;;;;;;;10.18;75.07;95684.69;1794926;80;21045;-67
2022/04/27 05:59:01;;;;;;;5.50;4.90;;;;;;;10.48;75.10;95681.16;1793849;80;21046;-68
2022/04/27 06:01:39;;;;;;;8.03;5.37;;;;;;;10.74;74.09;95679.84;1762451;80;20988;-68
2022/04/27 06:04:07;;;;;;;7.70;5.50;;;;;;;10.95;71.61;95685.16;1795417;80;21488;-67
2022/04/27 06:06:35;;;;;;;8.43;6.20;;;;;;;11.14;72.28;95681.28;1794536;80;21030;-68
2022/04/27 06:09:04;;;;;;;8.97;5.93;;;;;;;11.30;71.61;95687.58;1795446;80;21019;-68
2022/04/27 06:11:45;;;;;;;10.23;5.33;;;;;;;11.36;70.29;95684.80;1794705;80;21019;-67
2022/04/27 06:14:13;;;;;;;7.80;4.53;;;;;;;11.48;71.48;95692.03;1734451;80;20998;-68
2022/04/27 06:16:42;;;;;;;9.80;5.10;;;;;;;11.62;71.00;95689.58;1793711;80;21042;-68
2022/04/27 06:19:11;;;;;;;7.37;4.40;;;;;;;11.66;70.57;95685.48;1794438;80;21094;-68
2022/04/27 06:21:39;;;;;;;6.47;4.33;;;;;;;11.78;70.54;95691.42;1795292;80;21071;-68
2022/04/27 06:24:06;;;;;;;7.08;4.08;;;;;;;11.81;68.46;95684.75;1795237;80;20979;-68
2022/04/27 06:26:36;;;;;;;4.12;3.27;;;;;;;11.89;69.06;95681.50;1795443;80;21003;-68
2022/04/27 06:29:04;;;;;;;4.97;3.20;;;;;;;11.98;69.28;95681.77;1795507;80;21047;-68
2022/04/27 06:31:31;;;;;;;4.12;3.72;;;;;;;12.02;69.44;95677.70;1795613;80;21034;-68
2022/04/27 06:33:59;;;;;;;8.28;5.03;;;;;;;12.11;69.45;95684.54;1795522;80;21022;-68
2022/04/27 06:36:26;;;;;;;12.50;7.58;;;;;;;12.15;68.46;95684.03;1795335;80;21444;-68
2022/04/27 06:38:54;;;;;;;6.03;4.35;;;;;;;12.21;68.14;95683.88;1795577;80;21042;-68
2022/04/27 06:41:23;;;;;;;6.08;4.25;;;;;;;12.17;66.42;95677.80;1794385;80;21563;-67
2022/04/27 06:44:07;;;;;;;8.10;6.42;;;;;;;12.25;67.43;95677.16;1698861;84;21069;-68
2022/04/27 06:46:52;;;;;;;7.62;5.30;;;;;;;12.38;67.08;95677.73;1776089;80;21034;-67
2022/04/27 06:49:37;;;;;;;8.75;7.10;;;;;;;12.49;65.87;95672.17;1795502;80;21006;-68
2022/04/27 06:52:22;;;;;;;7.70;4.83;;;;;;;12.66;66.67;95676.59;1795292;80;21014;-67
2022/04/27 06:55:10;;;;;;;5.22;4.33;;;;;;;12.83;65.71;95673.98;1795259;80;20971;-68
2022/04/27 06:57:38;;;;;;;7.25;4.67;;;;;;;12.96;65.65;95679.36;1764881;80;20979;-67
2022/04/27 07:00:10;;;;;;;12.70;6.08;;;;;;;13.04;64.98;95681.34;1794595;80;21006;-67
2022/04/27 07:02:38;;;;;;;12.07;4.30;;;;;;;13.12;63.83;95687.75;1795522;80;21457;-68
2022/04/27 07:05:09;;;;;;;4.58;3.12;;;;;;;13.21;64.93;95679.11;1795430;80;21014;-67
2022/04/27 07:07:36;;;;;;;4.50;2.77;;;;;;;13.45;65.22;95675.84;1795707;80;21046;-68
2022/04/27 07:10:03;;;;;;;3.25;2.70;;;;;;;13.58;64.27;95683.41;1795465;80;21535;-68
2022/04/27 07:12:30;;;;;;;5.80;2.60;;;;;;;13.67;64.16;95673.45;1795492;80;21073;-68
2022/04/27 07:14:56;;;;;;;6.17;2.87;;;;;;;13.76;62.28;95678.48;1795445;80;21508;-67
2022/04/27 07:17:23;;;;;;;5.80;2.90;;;;;;;13.93;63.72;95678.81;1795764;80;21003;-68
2022/04/27 07:19:50;;;;;;;5.67;2.67;;;;;;;14.15;62.80;95678.17;1795612;80;21017;-68
2022/04/27 07:22:16;;;;;;;6.10;3.12;;;;;;;14.37;62.35;95680.56;1795606;80;20974;-68
2022/04/27 07:24:44;;;;;;;7.28;2.60;;;;;;;14.56;61.54;95678.20;1795368;80;21078;-68
2022/04/27 07:27:11;;;;;;;6.85;2.60;;;;;;;14.71;59.46;95675.50;1795394;80;21029;-68
2022/04/27 07:29:37;;;;;;;5.70;2.95;;;;;;;14.84;59.72;95679.93;1795502;80;21468;-68
2022/04/27 07:32:06;;;;;;;3.20;2.67;;;;;;;14.89;60.09;95682.87;1795786;80;20970;-68
2022/04/27 07:34:32;;;;;;;2.98;2.40;;;;;;;14.98;60.10;95680.34;1795487;80;21059;-67
2022/04/27 07:37:01;;;;;;;2.80;2.58;;;;;;;15.00;59.15;95683.81;1795783;80;21010;-67
2022/04/27 07:39:28;;;;;;;3.90;2.45;;;;;;;14.89;57.58;95687.28;1795791;80;20994;-68
2022/04/27 07:41:55;;;;;;;3.52;2.42;;;;;;;14.82;57.08;95692.42;1795242;80;21018;-68
2022/04/27 07:44:22;;;;;;;3.45;2.35;;;;;;;14.74;57.61;95695.34;1795581;80;20978;-68
2022/04/27 07:46:49;;;;;;;3.42;2.27;;;;;;;14.70;58.36;95695.88;1795348;80;21521;-67
2022/04/27 07:49:19;;;;;;;2.67;2.35;;;;;;;14.61;57.90;95692.66;1795248;80;21010;-67
2022/04/27 07:51:48;;;;;;;4.85;2.22;;;;;;;14.58;58.68;95696.28;1795543;80;21013;-67
2022/04/27 07:54:14;;;;;;;4.25;2.17;;;;;;;14.56;58.90;95700.77;1795333;80;21066;-67
2022/04/27 07:56:41;;;;;;;5.10;2.40;;;;;;;14.49;57.98;95697.89;1795297;80;21075;-67
2022/04/27 07:59:07;;;;;;;2.90;2.27;;;;;;;14.55;59.13;95703.02;1795559;80;20947;-67
2022/04/27 08:01:34;;;;;;;3.55;2.10;;;;;;;14.56;59.42;95706.08;1795071;80;21049;-67
2022/04/27 08:04:01;;;;;;;3.58;2.37;;;;;;;14.59;58.87;95699.80;1795639;80;21037;-67
2022/04/27 08:06:27;;;;;;;3.52;2.22;;;;;;;14.64;59.02;95708.05;1795588;80;20975;-67
2022/04/27 08:08:54;;;;;;;7.28;2.67;;;;;;;14.67;59.10;95703.95;1795161;80;21015;-67
2022/04/27 08:11:22;;;;;;;5.28;2.65;;;;;;;14.69;59.02;95703.88;1795400;80;21057;-67
2022/04/27 08:13:49;;;;;;;4.33;2.20;;;;;;;14.68;58.71;95704.35;1795214;80;21026;-67
2022/04/27 08:16:15;;;;;;;2.92;2.55;;;;;;;14.65;58.25;95701.80;1795346;80;21038;-67
2022/04/27 08:18:42;;;;;;;2.80;2.60;;;;;;;14.62;58.19;95700.58;1795560;80;20987;-67
2022/04/27 08:21:14;;;;;;;3.75;2.80;;;;;;;14.60;58.29;95706.40;1795748;80;20990;-67
2022/04/27 08:23:44;;;;;;;3.70;2.58;;;;;;;14.63;59.06;95705.42;1795628;80;21025;-67
2022/04/27 08:26:11;;;;;;;4.53;2.67;;;;;;;14.64;59.02;95711.14;1795351;80;21034;-67
2022/04/27 08:28:41;;;;;;;3.50;2.30;;;;;;;14.62;58.32;95711.20;1795363;80;20990;-67
2022/04/27 08:31:10;;;;;;;3.70;2.50;;;;;;;14.67;58.65;95713.72;1795556;80;20959;-67
2022/04/27 08:33:36;;;;;;;3.12;2.87;;;;;;;14.73;58.20;95712.64;1790555;80;21015;-67
2022/04/27 08:36:04;;;;;;;2.95;2.55;;;;;;;14.79;58.55;95706.67;1764420;80;21448;-67
2022/04/27 08:38:33;;;;;;;2.75;2.35;;;;;;;14.97;58.49;95712.27;1795434;80;21496;-67
2022/04/27 08:41:01;;;;;;;3.67;2.30;;;;;;;15.12;58.50;95707.31;1795500;80;21503;-67
2022/04/27 08:43:27;;;;;;;3.55;2.92;;;;;;;15.31;58.47;95705.33;1795158;80;21110;-67
2022/04/27 08:45:55;;;;;;;6.58;3.08;;;;;;;15.50;57.82;95708.22;1795418;80;20982;-67
2022/04/27 08:48:22;;;;;;;3.52;2.33;;;;;;;15.61;56.11;95715.33;1790320;80;21019;-67
2022/04/27 08:50:50;;;;;;;3.05;2.50;;;;;;;15.75;57.22;95705.09;1787101;80;21027;-69
2022/04/27 08:53:17;;;;;;;4.78;2.72;;;;;;;15.86;56.43;95706.02;1780124;80;21453;-69
2022/04/27 08:55:44;;;;;;;7.97;2.40;;;;;;;15.99;55.70;95703.76;1787011;80;21018;-68
2022/04/27 08:58:15;;;;;;;5.22;2.80;;;;;;;16.09;55.78;95701.14;1787073;80;21121;-69
2022/04/27 09:00:44;;;;;;;3.95;2.45;;;;;;;16.22;56.25;95706.39;1787487;80;21488;-69
2022/04/27 09:03:33;;;;;;;3.77;2.60;;;;;;;16.15;54.16;95700.92;1787064;80;21026;-69
2022/04/27 09:06:03;;;;;;;5.35;2.67;;;;;;;16.19;55.56;95705.19;1787102;80;21008;-69
2022/04/27 09:08:50;;;;;;;2.90;2.60;;;;;;;16.19;55.56;95705.19;1787174;80;21061;-69
2022/04/27 09:11:26;;;;;;;3.50;3.20;;;;;;;16.32;55.90;95706.91;1786551;80;21106;-69
2022/04/27 09:13:57;;;;;;;4.65;3.20;;;;;;;16.37;55.65;95698.73;1787128;80;20987;-69
2022/04/27 09:20:46;;;;;;;3.17;2.75;;;;;;;16.42;55.09;95690.09;1787088;80;21002;-69
2022/04/27 09:22:02;;;;;;;4.40;2.90;;;;;;;16.55;56.11;95686.47;1787218;80;20932;-69
2022/04/27 09:24:30;;;;;;;3.12;2.35;;;;;;;16.70;56.72;95684.98;1787190;80;20979;-69
2022/04/27 09:27:16;;;;;;;6.12;2.52;;;;;;;16.88;55.82;95682.91;1779806;80;21501;-69
2022/04/27 09:29:43;;;;;;;3.52;2.22;;;;;;;17.17;55.01;95679.02;1787158;80;21042;-69
2022/04/27 09:32:17;;;;;;;4.10;2.58;;;;;;;17.69;54.82;95671.86;1786791;80;21030;-69
2022/04/27 09:34:46;;;;;;;4.45;2.83;;;;;;;18.14;55.00;95672.91;1787034;80;21496;-69
2022/04/27 09:37:18;;;;;;;3.75;2.47;;;;;;;18.46;53.47;95670.48;1787186;80;20948;-69
2022/04/27 09:39:49;;;;;;;3.80;2.80;;;;;;;18.83;54.27;95668.72;1786655;80;21011;-69
2022/04/27 09:42:16;;;;;;;3.17;2.30;;;;;;;19.13;52.68;95664.11;1786554;80;20999;-69
2022/04/27 09:44:44;;;;;;;2.57;2.30;;;;;;;19.27;51.89;95665.58;1787231;80;21010;-69
2022/04/27 09:47:12;;;;;;;3.42;2.60;;;;;;;19.40;50.44;95666.70;1786992;80;20974;-69
2022/04/27 09:49:43;;;;;;;5.05;2.30;;;;;;;19.12;48.45;95666.38;1787198;80;20987;-69
2022/04/27 09:52:14;;;;;;;4.37;2.40;;;;;;;18.75;49.77;95655.74;1787278;80;21038;-69
2022/04/27 09:54:44;;;;;;;3.25;2.95;;;;;;;18.35;50.43;95668.34;1787048;80;21076;-69
2022/04/27 09:57:13;;;;;;;4.25;2.55;;;;;;;17.90;52.06;95676.72;1787109;80;21027;-66
2022/04/27 09:59:41;;;;;;;4.08;3.12;;;;;;;17.51;52.85;95682.87;1786920;80;21348;-66
2022/04/27 10:02:10;;;;;;;5.10;3.60;;;;;;;17.07;54.80;95678.55;1786979;80;21580;-66
2022/04/27 10:04:39;;;;;;;3.50;2.62;;;;;;;16.71;58.76;95687.59;1787202;80;21011;-66
2022/04/27 10:07:10;;;;;;;11.95;5.17;;;;;;;16.35;57.71;95684.14;1787358;80;20983;-66
2022/04/27 10:09:36;;;;;;;15.88;8.45;;;;;;;16.00;61.69;95689.08;1787483;80;21011;-66
2022/04/27 10:12:06;;;;;;;12.13;8.18;;;;;;;15.82;62.67;95696.88;1787223;80;21046;-66
2022/04/27 10:14:33;;;;;;;12.03;7.53;;;;;;;15.63;64.10;95690.02;1786932;80;20995;-66
2022/04/27 10:17:00;;;;;;;18.82;11.35;;;;;;;15.49;64.91;95694.50;1787039;80;21050;-66
2022/04/27 10:19:26;;;;;;;13.68;7.50;;;;;;;15.47;65.10;95697.67;1787531;80;20986;-66
2022/04/27 10:24:46;;;;;;;11.97;7.28;;;;;;;15.86;66.90;95695.37;1786903;80;21012;-66
2022/04/27 10:27:25;;;;;;;8.73;6.92;;;;;;;15.86;66.90;95695.37;1787018;80;21083;-66
2022/04/27 10:30:04;;;;;;;4.80;2.90;;;;;;;16.07;66.70;95694.14;1787064;80;21536;-66
2022/04/27 10:32:45;;;;;;;6.10;2.98;;;;;;;16.43;66.27;95686.53;1786764;80;21050;-66
2022/04/27 10:35:22;;;;;;;5.35;2.50;;;;;;;16.60;65.47;95685.82;1786912;80;21030;-66
2022/04/27 10:37:54;;;;;;;2.08;1.87;;;;;;;16.65;64.56;95694.49;1786936;80;21019;-66
2022/04/27 10:40:43;;;;;;;5.22;2.25;;;;;;;16.65;62.73;95691.83;1787443;80;20994;-66
2022/04/27 10:43:28;;;;;;;2.83;2.02;;;;;;;16.63;63.11;95687.92;1786998;80;21513;-66
2022/04/27 10:45:55;;;;;;;3.22;2.60;;;;;;;16.62;63.23;95691.48;1787307;80;21022;-66
2022/04/27 10:48:30;;;;;;;3.95;2.40;;;;;;;16.62;61.10;95684.83;1790139;80;21026;-66
2022/04/27 10:51:03;;;;;;;4.92;2.40;;;;;;;16.55;61.58;95682.48;1794734;80;21003;-66
2022/04/27 10:53:40;;;;;;;4.67;2.67;;;;;;;16.55;61.58;95682.48;1795625;80;21026;-66
2022/04/27 10:56:25;;;;;;;5.80;3.75;;;;;;;16.36;62.11;95681.90;1789249;80;21544;-66
2022/04/27 10:58:52;;;;;;;5.17;2.60;;;;;;;16.36;62.11;95681.90;1795517;80;21018;-66
2022/04/27 11:01:25;;;;;;;5.40;2.30;;;;;;;16.34;61.52;95677.09;1795591;80;20995;-66
2022/04/27 11:04:05;;;;;;;3.33;1.85;;;;;;;16.33;62.05;95676.70;1795553;80;21015;-66
2022/04/27 11:07:29;;;;;;;2.30;2.10;;;;;;;16.33;61.81;95678.03;1795608;80;21014;-66
2022/04/27 11:10:17;;;;;;;5.60;3.10;;;;;;;16.32;61.66;95678.94;1795681;80;21015;-66
2022/04/27 11:12:49;;;;;;;4.03;3.33;;;;;;;16.24;62.90;95689.04;1795142;80;21007;-66
2022/04/27 11:15:22;;;;;;;4.55;3.70;;;;;;;15.94;62.84;95679.12;1795534;80;21030;-66
2022/04/27 11:18:00;;;;;;;8.23;5.67;;;;;;;15.72;63.96;95691.02;1795368;80;21568;-66
2022/04/27 11:20:38;;;;;;;13.98;6.55;;;;;;;15.72;63.96;95691.02;1795492;80;20991;-66
2022/04/27 11:23:21;;;;;;;5.25;3.55;;;;;;;15.56;64.90;95694.69;1795232;80;21046;-66
2022/04/27 11:25:52;;;;;;;6.75;4.60;;;;;;;15.58;64.55;95700.35;1794838;80;21038;-66
2022/04/27 11:28:20;;;;;;;5.47;3.40;;;;;;;15.53;66.37;95697.46;1795670;80;21058;-66
2022/04/27 11:30:47;;;;;;;7.30;3.37;;;;;;;15.59;66.12;95698.09;1795446;80;21078;-66
2022/04/27 11:33:17;;;;;;;3.27;2.77;;;;;;;15.93;67.54;95693.36;1795183;80;21030;-66
2022/04/27 11:35:47;;;;;;;3.77;2.50;;;;;;;17.10;61.45;95682.88;1796187;80;21481;-66
2022/04/27 11:38:19;;;;;;;4.00;2.70;;;;;;;17.10;61.45;95682.88;1795252;80;21033;-66
2022/04/27 11:40:48;;;;;;;3.92;2.80;;;;;;;17.07;62.97;95679.02;1795514;80;20946;-66
2022/04/27 11:43:24;;;;;;;5.45;3.67;;;;;;;17.03;63.37;95682.73;1795306;80;21050;-66
2022/04/27 11:45:51;;;;;;;5.08;3.47;;;;;;;16.83;62.33;95689.80;1795456;80;21018;-66
2022/04/27 11:48:18;;;;;;;4.28;2.98;;;;;;;16.62;62.60;95689.30;1793700;80;21500;-66
2022/04/27 11:50:46;;;;;;;3.12;2.70;;;;;;;16.49;63.20;95693.40;1787255;80;21026;-66
2022/04/27 11:53:13;;;;;;;3.70;2.50;;;;;;;16.39;62.67;95699.55;1787051;80;21015;-66
2022/04/27 11:55:43;;;;;;;3.55;3.25;;;;;;;16.26;62.26;95695.64;1787250;80;20990;-66
2022/04/27 11:58:13;;;;;;;3.60;3.30;;;;;;;16.26;62.93;95696.98;1754607;80;21003;-66
2022/04/27 12:00:40;;;;;;;2.40;2.10;;;;;;;16.27;63.17;95692.05;1786422;80;21003;-66
2022/04/27 12:03:07;;;;;;;1.85;1.75;;;;;;;16.27;62.36;95682.25;1786961;80;21114;-66
2022/04/27 12:05:37;;;;;;;2.27;2.08;;;;;;;16.29;61.40;95696.84;1787245;80;21445;-66
2022/04/27 12:08:09;;;;;;;3.35;2.20;;;;;;;16.25;61.12;95701.41;1786952;80;21492;-66
2022/04/27 12:10:43;;;;;;;3.70;2.50;;;;;;;16.07;59.17;95700.80;1787477;80;20991;-66